PDT,Max TemperatureF,Mean TemperatureF,Min TemperatureF,Max Dew PointF,MeanDew PointF,Min DewpointF,Max Humidity, Mean Humidity, Min Humidity, Max Sea Level PressureIn, Mean Sea Level PressureIn, Min Sea Level PressureIn, Max VisibilityMiles, Mean VisibilityMiles, Min VisibilityMiles, Max Wind SpeedMPH, Mean Wind SpeedMPH, Max Gust SpeedMPH,PrecipitationIn, CloudCover, Events, WindDirDegrees
2012-7-1,76,69,61,59,57,55,90,74,57,29.94,29.89,29.83,10,10,10,18,12,22,0.00,4,,221
2012-7-2,74,66,57,56,55,51,87,70,53,29.89,29.84,29.81,10,10,9,21,12,24,0.00,4,,218
2012-7-3,79,65,50,55,51,46,93,68,42,29.90,29.84,29.77,10,10,8,17,8,20,0.00,2,,236
2012-7-4,72,64,55,55,53,51,86,70,53,29.85,29.81,29.78,10,9,8,22,12,40,0.00,1,,201
2012-7-5,75,64,53,52,51,48,89,67,44,29.96,29.91,29.86,10,10,10,20,13,23,0.00,4,,218
2012-7-6,78,65,52,56,53,50,86,68,50,30.02,29.96,29.91,10,10,10,17,8,22,0.00,4,,215
2012-7-7,86,66,46,57,52,44,100,67,34,29.98,29.94,29.88,10,8,0,17,7,22,0.00,0,Fog,193
2012-7-8,74,64,53,55,53,50,93,73,53,30.02,29.97,29.93,10,10,10,17,10,23,0.00,2,,212
2012-7-9,74,63,52,56,52,48,93,73,53,30.04,29.98,29.91,10,10,7,14,8,17,0.00,3,,243
2012-7-10,87,71,54,58,54,52,93,67,40,29.95,29.88,29.78,10,9,6,12,6,22,0.00,3,,198
2012-7-11,87,70,52,57,55,49,93,65,36,29.86,29.81,29.75,10,9,5,14,6,89,0.00,0,,192
2012-7-12,78,66,53,57,54,50,93,72,50,29.83,29.80,29.76,10,10,7,21,10,23,0.00,1,,188
2012-7-13,71,61,51,54,52,48,93,76,58,29.91,29.86,29.81,10,8,1,24,14,30,0.00,4,,219
2012-7-14,72,64,55,55,53,51,93,77,61,29.96,29.89,29.84,10,10,10,18,12,23,0.00,5,,206
2012-7-15,75,65,55,56,54,52,93,73,53,29.92,29.86,29.79,10,10,10,18,10,28,0.00,4,,216
2012-7-16,68,62,55,55,52,50,86,71,56,29.91,29.85,29.80,10,10,5,28,16,35,T,6,,230
2012-7-17,71,63,54,54,52,50,86,69,51,29.97,29.93,29.87,10,10,10,18,10,35,0.00,6,,243
2012-7-18,75,63,50,54,51,48,100,75,49,30.01,29.97,29.93,10,10,2,17,8,20,0.00,2,,259
2012-7-19,78,66,54,56,54,52,93,70,46,30.04,29.99,29.95,10,10,10,21,10,30,0.00,2,,266
2012-7-20,87,69,50,58,54,48,100,65,29,30.08,30.02,29.93,10,8,0,15,6,18,0.00,1,Fog,228
2012-7-21,94,73,52,59,56,53,93,61,28,29.96,29.90,29.82,10,10,10,17,7,20,0.00,0,,186
2012-7-22,80,68,56,58,55,54,93,71,48,29.89,29.86,29.80,10,9,6,22,9,,0.00,2,,201
2012-7-23,72,63,54,56,54,53,93,75,57,29.92,29.89,29.86,10,9,8,25,13,31,0.00,2,,197
2012-7-24,75,65,54,56,53,51,86,70,53,29.97,29.92,29.88,10,10,10,23,10,26,0.00,2,,245
2012-7-25,74,62,50,55,53,48,93,75,57,30.01,29.95,29.90,10,10,10,23,11,28,0.00,1,,235
2012-7-26,72,63,54,55,52,50,89,73,57,30.00,29.95,29.90,10,10,10,22,12,26,0.00,5,,246
2012-7-27,72,63,53,56,53,50,93,75,57,30.02,29.97,29.93,10,10,10,18,11,22,0.00,4,,221
2012-7-28,78,67,56,56,54,52,93,70,47,30.04,29.99,29.94,10,10,10,18,9,22,0.00,4,,221
2012-7-29,75,66,56,57,55,53,93,73,53,30.05,29.98,29.91,10,10,9,16,10,20,0.00,4,,211
2012-7-30,88,72,56,59,56,54,93,64,34,29.99,29.91,29.83,10,9,7,15,6,18,0.00,3,,207
2012-7-31,78,66,54,57,55,52,93,72,50,29.96,29.92,29.89,10,10,7,16,7,20,0.00,0,,193